createdAt,value
2018-06-19T00:01:02.950Z,101590.45
2018-06-19T00:02:08.489Z,101592.33
2018-06-19T00:03:14.026Z,101592.00
2018-06-19T00:04:19.546Z,101596.27
2018-06-19T00:05:29.348Z,101595.64
2018-06-19T00:06:34.893Z,101593.97
2018-06-19T00:07:40.566Z,101597.45
2018-06-19T00:08:46.093Z,101592.67
2018-06-19T00:09:51.874Z,101587.55
2018-06-19T00:10:57.526Z,101593.30
2018-06-19T00:12:03.325Z,101592.78
2018-06-19T00:13:08.986Z,101588.23
2018-06-19T00:14:14.529Z,101582.10
2018-06-19T00:15:20.205Z,101587.03
2018-06-19T00:16:25.775Z,101588.79
2018-06-19T00:17:31.364Z,101591.81
2018-06-19T00:18:44.049Z,101591.33
2018-06-19T00:19:53.219Z,101586.55
2018-06-19T00:21:18.821Z,101585.31
2018-06-19T00:22:24.416Z,101591.06
2018-06-19T00:23:30.234Z,101597.64
2018-06-19T00:24:35.866Z,101593.39
2018-06-19T00:25:41.484Z,101596.24
2018-06-19T00:26:47.032Z,101598.64
2018-06-19T00:27:52.674Z,101595.43
2018-06-19T00:28:58.609Z,101593.35
2018-06-19T00:30:04.298Z,101590.77
2018-06-19T00:31:09.898Z,101591.22
2018-06-19T00:32:15.397Z,101599.67
2018-06-19T00:33:21.014Z,101597.64
2018-06-19T00:34:26.550Z,101598.02
2018-06-19T00:35:32.137Z,101594.91
2018-06-19T00:36:37.670Z,101597.86
2018-06-19T00:37:43.206Z,101601.39
2018-06-19T00:38:48.616Z,101597.19
2018-06-19T00:39:54.148Z,101597.19
2018-06-19T00:40:59.769Z,101595.95
2018-06-19T00:42:05.212Z,101598.43
2018-06-19T00:43:10.628Z,101596.21
2018-06-19T00:44:16.230Z,101594.23
2018-06-19T00:45:21.653Z,101594.23
2018-06-19T00:46:29.626Z,101593.24
2018-06-19T00:47:35.125Z,101595.89
2018-06-19T00:48:40.675Z,101596.97
2018-06-19T00:49:46.134Z,101595.41
2018-06-19T00:50:51.550Z,101595.19
2018-06-19T00:51:57.366Z,101601.61
2018-06-19T00:53:02.785Z,101590.79
2018-06-19T00:54:08.196Z,101598.61
2018-06-19T00:55:13.677Z,101596.94
2018-06-19T00:56:36.284Z,101601.77
2018-06-19T00:57:41.751Z,101599.66
2018-06-19T00:58:47.163Z,101600.37
2018-06-19T00:59:52.568Z,101599.39
2018-06-19T01:00:58.069Z,101602.13
2018-06-19T01:02:03.605Z,101599.58
2018-06-19T01:03:09.124Z,101604.62
2018-06-19T01:04:14.766Z,101604.36
2018-06-19T01:05:20.198Z,101606.13
2018-06-19T01:06:25.368Z,101603.53
2018-06-19T01:07:30.928Z,101603.64
2018-06-19T01:08:36.348Z,101600.89
2018-06-19T01:09:41.847Z,101600.47
2018-06-19T01:10:47.256Z,101594.78
2018-06-19T01:11:52.673Z,101598.15
2018-06-19T01:12:58.129Z,101596.86
2018-06-19T01:14:03.564Z,101598.61
2018-06-19T01:15:09.009Z,101600.59
2018-06-19T01:16:14.454Z,101600.48
2018-06-19T01:17:19.878Z,101604.17
2018-06-19T01:18:25.313Z,101600.53
2018-06-19T01:19:30.741Z,101598.16
2018-06-19T01:20:36.579Z,101596.81
2018-06-19T01:21:42.006Z,101602.09
2018-06-19T01:22:47.181Z,101603.28
2018-06-19T01:23:52.546Z,101604.91
2018-06-19T01:24:57.973Z,101601.21
2018-06-19T01:26:03.442Z,101603.02
2018-06-19T01:27:08.879Z,101596.92
2018-06-19T01:28:14.434Z,101604.17
2018-06-19T01:29:19.862Z,101600.02
2018-06-19T01:30:25.221Z,101600.86
2018-06-19T01:31:30.537Z,101596.41
2018-06-19T01:32:35.992Z,101601.99
2018-06-19T01:33:41.094Z,101605.42
2018-06-19T01:34:46.456Z,101604.48
2018-06-19T01:35:51.861Z,101605.12
2018-06-19T01:36:57.281Z,101607.92
2018-06-19T01:38:02.783Z,101598.59
2018-06-19T01:39:10.804Z,101596.45
2018-06-19T01:40:16.582Z,101598.59
2018-06-19T01:41:22.309Z,101592.11
2018-06-19T01:42:27.738Z,101597.54
2018-06-19T01:43:33.149Z,101591.79
2018-06-19T01:44:38.555Z,101585.42
2018-06-19T01:45:43.981Z,101594.03
2018-06-19T01:46:49.397Z,101586.55
2018-06-19T01:47:55.223Z,101588.49
2018-06-19T01:49:00.642Z,101593.77
2018-06-19T01:50:06.066Z,101595.38
2018-06-19T01:51:11.495Z,101591.08
2018-06-19T01:52:17.343Z,101584.17
2018-06-19T01:53:22.772Z,101596.27
2018-06-19T01:54:28.286Z,101594.41
2018-06-19T01:55:33.708Z,101590.52
2018-06-19T01:56:39.105Z,101586.88
2018-06-19T01:57:44.737Z,101594.65
2018-06-19T01:58:50.154Z,101590.03
2018-06-19T01:59:55.581Z,101592.11
2018-06-19T02:01:00.986Z,101589.47
2018-06-19T02:02:06.465Z,101591.08
2018-06-19T02:03:12.039Z,101592.11
2018-06-19T02:04:17.492Z,101592.00
2018-06-19T02:05:22.925Z,101592.27
2018-06-19T02:06:28.341Z,101590.92
2018-06-19T02:07:33.717Z,101589.67
2018-06-19T02:08:39.349Z,101589.67
2018-06-19T02:09:44.733Z,101589.30
2018-06-19T02:10:50.224Z,101588.01
2018-06-19T02:11:55.695Z,101590.59
2018-06-19T02:13:01.121Z,101587.87
2018-06-19T02:14:06.597Z,101594.03
2018-06-19T02:15:12.097Z,101586.20
2018-06-19T02:16:17.655Z,101586.52
2018-06-19T02:17:23.100Z,101591.03
2018-06-19T02:18:28.597Z,101583.25
2018-06-19T02:19:33.984Z,101584.70
2018-06-19T02:20:39.402Z,101587.03
2018-06-19T02:21:44.840Z,101585.58
2018-06-19T02:22:50.284Z,101582.20
2018-06-19T02:23:55.690Z,101589.87
2018-06-19T02:25:01.131Z,101582.16
2018-06-19T02:26:06.605Z,101588.44
2018-06-19T02:27:12.032Z,101586.25
2018-06-19T02:28:17.633Z,101583.30
2018-06-19T02:29:23.053Z,101583.20
2018-06-19T02:30:28.484Z,101585.06
2018-06-19T02:31:34.264Z,101582.73
2018-06-19T02:32:39.898Z,101579.72
2018-06-19T02:33:45.452Z,101586.14
2018-06-19T02:34:50.997Z,101578.85
2018-06-19T02:35:56.832Z,101585.73
2018-06-19T02:37:02.282Z,101580.61
2018-06-19T02:38:08.057Z,101585.42
2018-06-19T02:39:13.525Z,101584.50
2018-06-19T02:40:19.175Z,101587.19
2018-06-19T02:41:24.581Z,101580.86
2018-06-19T02:42:29.969Z,101581.70
2018-06-19T02:43:35.667Z,101592.89
2018-06-19T02:44:41.098Z,101585.63
2018-06-19T02:45:46.494Z,101596.27
2018-06-19T02:46:51.934Z,101587.87
2018-06-19T02:47:57.333Z,101593.19
2018-06-19T02:49:02.801Z,101590.45
2018-06-19T02:50:08.261Z,101588.95
2018-06-19T02:51:13.668Z,101589.98
2018-06-19T02:52:19.073Z,101591.38
2018-06-19T02:53:24.754Z,101592.16
2018-06-19T02:54:30.368Z,101597.44
2018-06-19T02:55:35.785Z,101600.34
2018-06-19T02:56:41.203Z,101594.38
2018-06-19T02:57:46.654Z,101598.00
2018-06-19T02:58:52.115Z,101601.02
2018-06-19T02:59:57.625Z,101601.16
2018-06-19T03:01:03.167Z,101604.06
2018-06-19T03:02:08.600Z,101601.80
2018-06-19T03:03:14.032Z,101604.39
2018-06-19T03:04:19.444Z,101601.48
2018-06-19T03:05:24.901Z,101603.75
2018-06-19T03:06:30.438Z,101598.73
2018-06-19T03:07:35.956Z,101600.13
2018-06-19T03:08:41.346Z,101602.20
2018-06-19T03:09:46.773Z,101605.63
2018-06-19T03:10:52.302Z,101610.49
2018-06-19T03:11:57.725Z,101612.67
2018-06-19T03:13:03.153Z,101611.59
2018-06-19T03:14:08.563Z,101611.73
2018-06-19T03:15:13.977Z,101609.57
2018-06-19T03:16:19.423Z,101615.83
2018-06-19T03:17:25.318Z,101608.93
2018-06-19T03:18:30.726Z,101611.38
2018-06-19T03:19:36.123Z,101608.41
2018-06-19T03:20:41.621Z,101613.23
2018-06-19T03:21:47.029Z,101616.70
2018-06-19T03:22:52.718Z,101618.05
2018-06-19T03:23:58.188Z,101621.52
2018-06-19T03:25:03.659Z,101620.08
2018-06-19T03:26:09.066Z,101619.51
2018-06-19T03:27:14.601Z,101625.02
2018-06-19T03:28:20.226Z,101628.12
2018-06-19T03:29:25.628Z,101626.87
2018-06-19T03:30:31.097Z,101632.11
2018-06-19T03:31:36.485Z,101626.92
2018-06-19T03:32:41.942Z,101632.05
2018-06-19T03:33:47.776Z,101633.24
2018-06-19T03:34:54.138Z,101629.46
2018-06-19T03:35:59.663Z,101629.81
2018-06-19T03:37:05.077Z,101627.55
2018-06-19T03:38:10.479Z,101628.73
2018-06-19T03:39:15.918Z,101628.73
2018-06-19T03:40:21.370Z,101629.73
2018-06-19T03:41:26.906Z,101631.24
2018-06-19T03:42:32.526Z,101630.41
2018-06-19T03:43:37.984Z,101627.88
2018-06-19T03:44:43.429Z,101633.41
2018-06-19T03:45:48.859Z,101633.46
2018-06-19T03:46:54.313Z,101635.08
2018-06-19T03:47:59.969Z,101639.84
2018-06-19T03:49:05.766Z,101640.45
2018-06-19T03:50:11.178Z,101645.64
2018-06-19T03:51:16.599Z,101641.28
2018-06-19T03:52:22.028Z,101642.31
2018-06-19T03:53:27.785Z,101648.79
2018-06-19T03:54:33.218Z,101650.59
2018-06-19T03:55:38.648Z,101645.74
2018-06-19T03:56:44.046Z,101644.28
2018-06-19T03:57:54.024Z,101643.83
2018-06-19T03:58:59.513Z,101645.02
2018-06-19T04:00:05.018Z,101648.55
2018-06-19T04:01:10.445Z,101654.56
2018-06-19T04:02:16.131Z,101654.92
2018-06-19T04:03:21.548Z,101655.86
2018-06-19T04:04:26.993Z,101659.12
2018-06-19T04:05:32.390Z,101655.02
2018-06-19T04:06:37.800Z,101646.20
2018-06-19T04:07:43.246Z,101650.77
2018-06-19T04:08:48.698Z,101648.95
2018-06-19T04:09:54.737Z,101651.14
2018-06-19T04:11:00.139Z,101644.61
2018-06-19T04:12:05.625Z,101651.36
2018-06-19T04:13:11.060Z,101654.09
2018-06-19T04:14:16.768Z,101654.00
2018-06-19T04:15:22.222Z,101660.64
2018-06-19T04:16:27.686Z,101651.66
2018-06-19T04:17:33.095Z,101653.84
2018-06-19T04:18:38.537Z,101654.98
2018-06-19T04:19:44.172Z,101656.44
2018-06-19T04:20:49.585Z,101654.52
2018-06-19T04:21:54.992Z,101656.44
2018-06-19T04:23:00.441Z,101658.92
2018-06-19T04:24:06.076Z,101658.52
2018-06-19T04:25:11.494Z,101660.59
2018-06-19T04:26:16.978Z,101662.64
2018-06-19T04:27:23.188Z,101663.06
2018-06-19T04:28:28.672Z,101661.21
2018-06-19T04:29:34.057Z,101658.41
2018-06-19T04:30:39.453Z,101661.16
2018-06-19T04:31:44.876Z,101667.02
2018-06-19T04:32:50.273Z,101669.55
2018-06-19T04:33:55.884Z,101668.88
2018-06-19T04:35:01.297Z,101673.69
2018-06-19T04:36:06.736Z,101676.55
2018-06-19T04:37:12.261Z,101672.61
2018-06-19T04:38:17.666Z,101670.34
2018-06-19T04:39:23.109Z,101675.79
2018-06-19T04:40:28.525Z,101675.88
2018-06-19T04:41:33.928Z,101672.72
2018-06-19T04:42:39.429Z,101671.80
2018-06-19T04:43:44.900Z,101663.50
2018-06-19T04:44:50.833Z,101667.02
2018-06-19T04:45:56.242Z,101665.42
2018-06-19T04:47:02.189Z,101668.69
2018-06-19T04:48:07.594Z,101665.72
2018-06-19T04:49:13.103Z,101669.40
2018-06-19T04:50:18.530Z,101670.34
2018-06-19T04:51:24.002Z,101665.83
2018-06-19T04:52:29.454Z,101665.58
2018-06-19T04:53:35.141Z,101669.62
2018-06-19T04:54:40.573Z,101667.09
2018-06-19T04:55:46.341Z,101667.49
2018-06-19T04:56:51.810Z,101674.30
2018-06-19T04:57:57.225Z,101674.59
2018-06-19T04:59:02.618Z,101677.76
2018-06-19T05:00:08.190Z,101673.41
2018-06-19T05:01:13.817Z,101676.57
2018-06-19T05:02:19.932Z,101676.05
2018-06-19T05:03:25.384Z,101679.32
2018-06-19T05:04:30.805Z,101675.73
2018-06-19T05:05:36.270Z,101677.24
2018-06-19T05:06:41.711Z,101678.59
2018-06-19T05:07:47.104Z,101674.81
2018-06-19T05:08:52.522Z,101683.38
2018-06-19T05:09:57.976Z,101685.34
2018-06-19T05:11:03.388Z,101682.17
2018-06-19T05:12:08.853Z,101683.09
2018-06-19T05:13:14.269Z,101680.05
2018-06-19T05:14:19.668Z,101681.23
2018-06-19T05:15:25.085Z,101685.23
2018-06-19T05:16:30.509Z,101689.73
2018-06-19T05:17:35.990Z,101690.11
2018-06-19T05:18:41.413Z,101689.48
2018-06-19T05:19:47.144Z,101688.84
2018-06-19T05:20:52.620Z,101689.75
2018-06-19T05:21:58.062Z,101695.91
2018-06-19T05:23:03.485Z,101692.80
2018-06-19T05:24:08.907Z,101693.39
2018-06-19T05:25:14.596Z,101693.08
2018-06-19T05:26:19.990Z,101698.27
2018-06-19T05:27:25.673Z,101696.52
2018-06-19T05:28:31.190Z,101694.33
2018-06-19T05:29:36.609Z,101699.25
2018-06-19T05:30:42.054Z,101693.89
2018-06-19T05:31:48.011Z,101702.11
2018-06-19T05:32:53.409Z,101706.72
2018-06-19T05:33:58.821Z,101703.12
2018-06-19T05:35:04.261Z,101701.88
2018-06-19T05:36:09.725Z,101706.72
2018-06-19T05:37:15.168Z,101707.59
2018-06-19T05:38:20.602Z,101707.80
2018-06-19T05:39:26.400Z,101709.03
2018-06-19T05:40:31.812Z,101714.59
2018-06-19T05:41:37.412Z,101710.23
2018-06-19T05:42:42.843Z,101718.37
2018-06-19T05:43:48.309Z,101715.75
2018-06-19T05:44:53.769Z,101711.80
2018-06-19T05:45:59.230Z,101716.16
2018-06-19T05:47:04.677Z,101715.37
2018-06-19T05:48:10.141Z,101714.97
2018-06-19T05:49:15.550Z,101721.41
2018-06-19T05:50:21.118Z,101719.01
2018-06-19T05:51:26.517Z,101721.72
2018-06-19T05:52:31.949Z,101723.68
2018-06-19T05:53:37.352Z,101726.28
2018-06-19T05:54:42.574Z,101731.00
2018-06-19T05:55:47.945Z,101727.98
2018-06-19T05:56:53.465Z,101728.09
2018-06-19T05:57:59.001Z,101729.02
2018-06-19T05:59:04.427Z,101727.34
2018-06-19T06:00:09.837Z,101736.28
2018-06-19T06:01:15.343Z,101733.45
2018-06-19T06:02:21.019Z,101739.03
2018-06-19T06:03:26.436Z,101743.12
2018-06-19T06:04:31.863Z,101734.81
2018-06-19T06:05:37.389Z,101737.58
2018-06-19T06:06:43.266Z,101734.31
2018-06-19T06:07:48.749Z,101732.85
2018-06-19T06:08:54.204Z,101736.02
2018-06-19T06:09:59.657Z,101734.20
2018-06-19T06:11:05.137Z,101730.62
2018-06-19T06:12:10.580Z,101729.09
2018-06-19T06:13:15.982Z,101736.83
2018-06-19T06:14:21.382Z,101731.92
2018-06-19T06:15:26.953Z,101730.52
2018-06-19T06:16:32.409Z,101735.06
2018-06-19T06:17:38.136Z,101737.84
2018-06-19T06:18:43.636Z,101736.48
2018-06-19T06:19:49.065Z,101741.63
2018-06-19T06:20:54.601Z,101744.12
2018-06-19T06:22:00.039Z,101738.41
2018-06-19T06:23:05.541Z,101742.31
2018-06-19T06:24:10.969Z,101738.79
2018-06-19T06:25:16.440Z,101743.66
2018-06-19T06:26:21.868Z,101736.86
2018-06-19T06:27:27.301Z,101736.02
2018-06-19T06:28:32.719Z,101740.12
2018-06-19T06:29:38.137Z,101742.40
2018-06-19T06:30:43.548Z,101748.28
2018-06-19T06:31:49.031Z,101746.52
2018-06-19T06:32:54.450Z,101745.83
2018-06-19T06:34:00.037Z,101753.24
2018-06-19T06:35:05.578Z,101751.48
2018-06-19T06:36:11.062Z,101754.42
2018-06-19T06:37:16.437Z,101751.11
2018-06-19T06:38:21.850Z,101754.86
2018-06-19T06:39:27.262Z,101752.63
2018-06-19T06:40:32.657Z,101751.84
2018-06-19T06:41:38.466Z,101751.58
2018-06-19T06:42:43.886Z,101750.48
2018-06-19T06:43:49.340Z,101752.17
2018-06-19T06:44:54.816Z,101753.80
2018-06-19T06:46:00.493Z,101761.37
2018-06-19T06:47:05.936Z,101761.09
2018-06-19T06:48:11.361Z,101758.04
2018-06-19T06:49:16.782Z,101767.45
2018-06-19T06:50:22.243Z,101763.02
2018-06-19T06:51:28.066Z,101763.02
2018-06-19T06:52:33.710Z,101771.23
2018-06-19T06:53:39.150Z,101766.22
2018-06-19T06:54:44.557Z,101776.66
2018-06-19T06:55:50.002Z,101772.91
2018-06-19T06:56:59.018Z,101773.48
2018-06-19T06:58:04.441Z,101771.37
2018-06-19T06:59:09.961Z,101778.75
2018-06-19T07:00:16.776Z,101778.22
2018-06-19T07:01:22.272Z,101778.80
2018-06-19T07:02:28.107Z,101780.64
2018-06-19T07:03:33.544Z,101785.05
2018-06-19T07:04:39.158Z,101786.34
2018-06-19T07:05:46.748Z,101780.91
2018-06-19T07:06:52.800Z,101781.22
2018-06-19T07:07:58.549Z,101784.12
2018-06-19T07:09:05.027Z,101791.03
2018-06-19T07:10:10.526Z,101789.39
2018-06-19T07:11:15.889Z,101795.00
2018-06-19T07:12:21.628Z,101800.20
2018-06-19T07:13:27.098Z,101797.01
2018-06-19T07:14:32.512Z,101799.20
2018-06-19T07:15:37.973Z,101797.97
2018-06-19T07:16:43.365Z,101796.78
2018-06-19T07:17:48.811Z,101798.08
2018-06-19T07:18:54.442Z,101799.89
2018-06-19T07:19:59.914Z,101797.31
2018-06-19T07:21:05.358Z,101808.66
2018-06-19T07:22:10.870Z,101802.05
2018-06-19T07:23:16.024Z,101803.05
2018-06-19T07:24:21.754Z,101802.64
2018-06-19T07:25:27.285Z,101804.86
2018-06-19T07:26:33.025Z,101810.83
2018-06-19T07:27:38.193Z,101815.38
2018-06-19T07:28:43.588Z,101810.19
2018-06-19T07:29:49.456Z,101813.33
2018-06-19T07:30:55.000Z,101815.88
2018-06-19T07:32:00.504Z,101816.80
2018-06-19T07:33:09.130Z,101817.94
2018-06-19T07:34:25.017Z,101808.06
2018-06-19T07:35:30.502Z,101812.69
2018-06-19T07:36:37.112Z,101813.39
2018-06-19T07:37:43.050Z,101812.09
2018-06-19T07:38:48.484Z,101809.92
2018-06-19T07:39:53.989Z,101813.70
2018-06-19T07:40:59.458Z,101812.27
2018-06-19T07:42:05.318Z,101815.95
2018-06-19T07:43:10.707Z,101811.16
2018-06-19T07:44:16.131Z,101815.81
2018-06-19T07:45:21.782Z,101809.90
2018-06-19T07:46:26.979Z,101818.52
2018-06-19T07:47:33.134Z,101817.39
2018-06-19T07:48:38.532Z,101819.92
2018-06-19T07:49:44.002Z,101818.25
2018-06-19T07:50:49.421Z,101822.26
2018-06-19T07:51:54.865Z,101824.80
2018-06-19T07:53:00.733Z,101826.87
2018-06-19T07:54:06.213Z,101830.88
2018-06-19T07:55:11.384Z,101829.27
2018-06-19T07:56:16.687Z,101825.39
2018-06-19T07:57:22.161Z,101826.42
2018-06-19T07:58:27.606Z,101830.26
2018-06-19T07:59:33.045Z,101826.91
2018-06-19T08:00:38.455Z,101825.23
2018-06-19T08:01:44.178Z,101831.06
2018-06-19T08:02:49.580Z,101831.98
2018-06-19T08:03:55.026Z,101834.67
2018-06-19T08:05:00.445Z,101833.06
2018-06-19T08:06:05.996Z,101825.03
2018-06-19T08:07:11.422Z,101831.30
2018-06-19T08:08:16.913Z,101829.24
2018-06-19T08:09:22.653Z,101828.33
2018-06-19T08:10:28.094Z,101831.16
2018-06-19T08:11:33.493Z,101832.64
2018-06-19T08:12:38.937Z,101834.84
2018-06-19T08:13:44.361Z,101831.97
2018-06-19T08:14:50.037Z,101834.34
2018-06-19T08:15:55.543Z,101835.70
2018-06-19T08:17:00.973Z,101836.26
2018-06-19T08:18:06.538Z,101834.61
2018-06-19T08:19:11.946Z,101836.26
2018-06-19T08:20:17.525Z,101839.56
2018-06-19T08:21:23.094Z,101847.88
2018-06-19T08:22:28.506Z,101852.48
2018-06-19T08:23:33.950Z,101853.17
2018-06-19T08:24:39.448Z,101849.63
2018-06-19T08:25:44.917Z,101851.80
2018-06-19T08:26:50.420Z,101853.18
2018-06-19T08:27:55.824Z,101862.67
2018-06-19T08:29:01.445Z,101855.61
2018-06-19T08:30:07.025Z,101861.69
2018-06-19T08:31:12.666Z,101856.73
2018-06-19T08:32:18.073Z,101863.51
2018-06-19T08:33:23.473Z,101869.96
2018-06-19T08:34:28.909Z,101866.89
2018-06-19T08:35:34.339Z,101870.12
2018-06-19T08:36:39.806Z,101869.17
2018-06-19T08:37:45.231Z,101868.02
2018-06-19T08:38:51.042Z,101874.69
2018-06-19T08:39:56.445Z,101870.31
2018-06-19T08:41:01.882Z,101869.01
2018-06-19T08:42:07.285Z,101872.83
2018-06-19T08:43:12.736Z,101874.41
2018-06-19T08:44:18.254Z,101876.24
2018-06-19T08:45:23.672Z,101874.76
2018-06-19T08:46:29.065Z,101872.67
2018-06-19T08:47:34.688Z,101874.95
2018-06-19T08:48:40.136Z,101876.54
2018-06-19T08:49:45.657Z,101871.83
2018-06-19T08:50:51.133Z,101878.97
2018-06-19T08:51:56.608Z,101872.24
2018-06-19T08:53:02.067Z,101872.77
2018-06-19T08:54:07.698Z,101873.95
2018-06-19T08:55:13.118Z,101880.57
2018-06-19T08:56:18.681Z,101881.58
2018-06-19T08:57:24.094Z,101882.00
2018-06-19T08:58:29.544Z,101884.02
2018-06-19T08:59:35.019Z,101886.63
2018-06-19T09:00:40.474Z,101885.36
2018-06-19T09:01:45.908Z,101882.23
2018-06-19T09:02:51.310Z,101883.25
2018-06-19T09:03:56.808Z,101887.42
2018-06-19T09:05:02.390Z,101889.03
2018-06-19T09:06:07.831Z,101882.83
2018-06-19T09:07:13.341Z,101878.16
2018-06-19T09:08:18.844Z,101882.52
2018-06-19T09:09:24.246Z,101881.52
2018-06-19T09:10:29.791Z,101889.03
2018-06-19T09:11:35.297Z,101886.48
2018-06-19T09:12:40.732Z,101893.92
2018-06-19T09:13:47.458Z,101897.16
2018-06-19T09:14:53.058Z,101894.16
2018-06-19T09:15:59.432Z,101899.30
2018-06-19T09:17:05.596Z,101900.31
2018-06-19T09:18:11.486Z,101895.48
2018-06-19T09:19:19.190Z,101902.44
2018-06-19T09:20:29.146Z,101905.83
2018-06-19T09:21:34.538Z,101904.92
2018-06-19T09:22:40.081Z,101907.06
2018-06-19T09:23:45.814Z,101899.08
2018-06-19T09:24:51.311Z,101897.19
2018-06-19T09:25:56.832Z,101899.55
2018-06-19T09:27:02.245Z,101903.52
2018-06-19T09:28:07.844Z,101899.14
2018-06-19T09:29:13.321Z,101900.91
2018-06-19T09:30:18.800Z,101905.41
2018-06-19T09:31:24.387Z,101896.34
2018-06-19T09:32:29.855Z,101902.97
2018-06-19T09:33:35.541Z,101902.02
2018-06-19T09:34:41.053Z,101900.16
2018-06-19T09:35:46.585Z,101901.95
2018-06-19T09:36:52.098Z,101898.12
2018-06-19T09:37:57.529Z,101903.12
2018-06-19T09:39:03.025Z,101900.22
2018-06-19T09:40:08.464Z,101896.50
2018-06-19T09:41:14.126Z,101898.44
2018-06-19T09:42:19.578Z,101897.77
2018-06-19T09:43:24.776Z,101898.67
2018-06-19T09:44:30.122Z,101899.00
2018-06-19T09:45:35.601Z,101897.63
2018-06-19T09:46:41.613Z,101901.59
2018-06-19T09:47:47.043Z,101895.02
2018-06-19T09:48:52.514Z,101898.08
2018-06-19T09:49:57.941Z,101897.45
2018-06-19T09:51:03.382Z,101897.55
2018-06-19T09:52:09.117Z,101896.31
2018-06-19T09:53:14.685Z,101895.70
2018-06-19T09:54:20.210Z,101894.73
2018-06-19T09:55:25.870Z,101893.63
2018-06-19T09:56:31.289Z,101897.87
2018-06-19T09:57:36.869Z,101905.16
2018-06-19T09:58:42.398Z,101895.36
2018-06-19T09:59:47.955Z,101898.13
2018-06-19T10:00:54.053Z,101898.76
2018-06-19T10:01:59.629Z,101899.84
2018-06-19T10:03:05.532Z,101902.51
2018-06-19T10:04:11.042Z,101899.16
2018-06-19T10:05:16.576Z,101898.76
2018-06-19T10:06:22.106Z,101896.22
2018-06-19T10:07:27.465Z,101892.92
2018-06-19T10:08:33.149Z,101896.44
2018-06-19T10:09:38.606Z,101890.76
2018-06-19T10:10:44.049Z,101893.54
2018-06-19T10:11:49.595Z,101898.64
2018-06-19T10:12:55.493Z,101892.54
2018-06-19T10:14:01.148Z,101896.81
2018-06-19T10:15:07.043Z,101894.34
2018-06-19T10:16:12.489Z,101900.05
2018-06-19T10:17:18.059Z,101896.14
2018-06-19T10:18:23.494Z,101898.85
2018-06-19T10:19:28.955Z,101899.95
2018-06-19T10:20:34.428Z,101901.19
2018-06-19T10:21:39.878Z,101900.86
2018-06-19T10:22:45.470Z,101903.66
2018-06-19T10:23:50.970Z,101906.91
2018-06-19T10:24:56.612Z,101907.27
2018-06-19T10:26:02.113Z,101905.60
2018-06-19T10:27:07.645Z,101915.59
2018-06-19T10:28:13.103Z,101914.98
2018-06-19T10:29:18.573Z,101916.05
2018-06-19T10:30:24.530Z,101917.91
2018-06-19T10:31:30.238Z,101914.77
2018-06-19T10:32:35.948Z,101914.47
2018-06-19T10:33:41.411Z,101918.23
2018-06-19T10:34:46.886Z,101921.94
2018-06-19T10:35:52.369Z,101917.50
2018-06-19T10:36:57.804Z,101917.72
2018-06-19T10:38:03.261Z,101921.56
2018-06-19T10:39:11.053Z,101918.64
2018-06-19T10:40:17.229Z,101920.28
2018-06-19T10:41:22.599Z,101920.58
2018-06-19T10:42:28.045Z,101921.94
2018-06-19T10:43:33.595Z,101913.66
2018-06-19T10:44:39.027Z,101922.53
2018-06-19T10:45:44.497Z,101921.32
2018-06-19T10:46:49.947Z,101921.34
2018-06-19T10:47:55.119Z,101918.52
2018-06-19T10:49:00.510Z,101923.56
2018-06-19T10:50:05.938Z,101929.10
2018-06-19T10:51:11.461Z,101920.63
2018-06-19T10:52:16.889Z,101930.78
2018-06-19T10:53:22.369Z,101930.53
2018-06-19T10:54:27.792Z,101929.23
2018-06-19T10:55:33.274Z,101931.94
2018-06-19T10:56:38.813Z,101930.86
2018-06-19T10:57:44.368Z,101933.16
2018-06-19T10:58:49.809Z,101931.98
2018-06-19T10:59:55.265Z,101928.69
2018-06-19T11:01:01.140Z,101919.30
2018-06-19T11:02:06.610Z,101920.90
2018-06-19T11:03:12.057Z,101924.19
2018-06-19T11:04:17.476Z,101926.09
2018-06-19T11:05:22.930Z,101925.49
2018-06-19T11:06:28.245Z,101926.25
2018-06-19T11:07:33.639Z,101929.26
2018-06-19T11:08:39.108Z,101922.80
2018-06-19T11:09:44.533Z,101925.70
2018-06-19T11:10:49.978Z,101919.23
2018-06-19T11:11:55.564Z,101921.58
2018-06-19T11:13:00.987Z,101923.09
2018-06-19T11:14:06.497Z,101931.25
2018-06-19T11:15:11.890Z,101925.08
2018-06-19T11:16:17.353Z,101928.45
2018-06-19T11:17:22.965Z,101934.47
2018-06-19T11:18:28.451Z,101935.60
2018-06-19T11:19:33.868Z,101933.17
2018-06-19T11:20:39.308Z,101937.44
2018-06-19T11:21:44.701Z,101932.98
2018-06-19T11:22:50.163Z,101938.08
2018-06-19T11:23:55.823Z,101938.38
2018-06-19T11:25:01.273Z,101942.73
2018-06-19T11:26:08.494Z,101943.89
2018-06-19T11:27:14.176Z,101946.11
2018-06-19T11:28:19.662Z,101942.30
2018-06-19T11:29:25.125Z,101945.61
2018-06-19T11:30:30.568Z,101941.22
2018-06-19T11:31:35.998Z,101942.13
2018-06-19T11:32:41.457Z,101949.17
2018-06-19T11:33:47.013Z,101951.02
2018-06-19T11:34:52.561Z,101947.64
2018-06-19T11:35:58.005Z,101944.95
2018-06-19T11:37:03.474Z,101949.80
2018-06-19T11:38:08.977Z,101947.77
2018-06-19T11:39:15.033Z,101947.56
2018-06-19T11:40:20.650Z,101951.00
2018-06-19T11:41:26.197Z,101947.64
2018-06-19T11:42:31.761Z,101950.23
2018-06-19T11:43:37.374Z,101950.91
2018-06-19T11:44:42.844Z,101952.89
2018-06-19T11:45:48.417Z,101950.28
2018-06-19T11:46:53.882Z,101959.48
2018-06-19T11:47:59.339Z,101953.33
2018-06-19T11:49:04.879Z,101953.27
2018-06-19T11:50:10.319Z,101954.97
2018-06-19T11:51:15.762Z,101958.55
2018-06-19T11:52:21.397Z,101952.33
2018-06-19T11:53:27.205Z,101948.48
2018-06-19T11:54:32.614Z,101953.66
2018-06-19T11:55:38.313Z,101953.27
2018-06-19T11:56:43.823Z,101951.32
2018-06-19T11:57:49.386Z,101950.78
2018-06-19T11:58:54.846Z,101958.30
2018-06-19T12:00:00.241Z,101963.48
2018-06-19T12:01:05.831Z,101958.44
2018-06-19T12:02:11.282Z,101960.95
2018-06-19T12:03:16.716Z,101961.57
2018-06-19T12:04:22.245Z,101956.61
2018-06-19T12:05:27.660Z,101963.27
2018-06-19T12:06:33.226Z,101965.50
2018-06-19T12:07:40.773Z,101962.22
2018-06-19T12:08:46.242Z,101961.38
2018-06-19T12:09:52.014Z,101964.51
2018-06-19T12:10:57.507Z,101956.28
2018-06-19T12:12:03.029Z,101957.98
2018-06-19T12:13:08.494Z,101958.27
2018-06-19T12:14:13.916Z,101963.48
2018-06-19T12:15:19.464Z,101962.27
2018-06-19T12:16:24.912Z,101962.05
2018-06-19T12:17:30.382Z,101957.09
2018-06-19T12:18:35.808Z,101958.38
2018-06-19T12:19:41.249Z,101959.37
2018-06-19T12:20:46.750Z,101957.09
2018-06-19T12:21:52.197Z,101959.11
2018-06-19T12:22:57.624Z,101960.34
2018-06-19T12:24:03.457Z,101961.17
2018-06-19T12:25:08.954Z,101958.63
2018-06-19T12:26:14.375Z,101961.84
2018-06-19T12:27:19.809Z,101964.78
2018-06-19T12:28:25.327Z,101959.94
2018-06-19T12:29:30.810Z,101963.91